Time;durP1;ratioP1;P1;durP2;ratioP2;P2;SDS_P1;SDS_P2;PMS_P1;PMS_P2;Temp;Humidity;BMP_temperature;BMP_pressure;BME280_temperature;BME280_humidity;BME280_pressure;Samples;Min_cycle;Max_cycle;Signal;HPM_P1;HPM_P2
2022/09/14 00:01:58;;;;;;;9.38;3.10;;;15.10;99.90;;;;;;5055093;28;20029;-76
2022/09/14 00:04:24;;;;;;;3.00;2.70;;;15.00;99.90;;;;;;5056766;28;20059;-76
2022/09/14 00:06:50;;;;;;;4.57;2.80;;;15.00;99.90;;;;;;5055441;28;20025;-76
2022/09/14 00:09:21;;;;;;;6.35;3.42;;;15.00;99.90;;;;;;5055145;28;20039;-76
2022/09/14 00:11:48;;;;;;;7.95;2.60;;;15.10;99.90;;;;;;5055874;28;20032;-77
2022/09/14 00:14:14;;;;;;;2.95;2.70;;;15.10;99.90;;;;;;5056521;28;20025;-76
2022/09/14 00:16:41;;;;;;;2.60;2.40;;;15.10;99.90;;;;;;5054964;28;20029;-76
2022/09/14 00:19:23;;;;;;;7.22;2.78;;;15.10;99.90;;;;;;5054971;28;20033;-76
2022/09/14 00:21:51;;;;;;;3.90;2.67;;;15.10;99.90;;;;;;5056114;28;20041;-76
2022/09/14 00:24:17;;;;;;;3.95;2.80;;;15.10;99.90;;;;;;5054797;28;20032;-76
2022/09/14 00:26:42;;;;;;;5.88;2.50;;;15.20;99.90;;;;;;5056089;28;20026;-76
2022/09/14 00:29:09;;;;;;;5.07;2.78;;;15.10;99.90;;;;;;5055801;28;20045;-76
2022/09/14 00:31:36;;;;;;;3.25;2.83;;;15.10;99.90;;;;;;5054707;28;20029;-76
2022/09/14 00:34:04;;;;;;;3.15;2.45;;;15.10;99.90;;;;;;5054786;28;20033;-76
2022/09/14 00:36:30;;;;;;;3.97;2.80;;;15.10;99.90;;;;;;5056176;28;20075;-76
2022/09/14 00:38:56;;;;;;;3.95;2.92;;;15.20;99.90;;;;;;5055060;28;20021;-76
2022/09/14 00:41:26;;;;;;;4.57;2.88;;;15.10;99.90;;;;;;5054373;28;20032;-76
2022/09/14 00:44:02;;;;;;;4.70;2.80;;;15.10;99.90;;;;;;5055387;28;20044;-76
2022/09/14 00:46:31;;;;;;;18.20;4.30;;;15.10;99.90;;;;;;5054402;28;20487;-76
2022/09/14 00:48:59;;;;;;;3.65;2.47;;;15.00;99.90;;;;;;5055857;28;20029;-76
2022/09/14 00:51:27;;;;;;;5.88;2.65;;;15.00;99.90;;;;;;5054257;28;20033;-76
2022/09/14 00:53:54;;;;;;;7.45;2.92;;;14.90;99.90;;;;;;5054506;28;20496;-76
2022/09/14 00:56:20;;;;;;;3.63;2.83;;;14.80;99.90;;;;;;5055184;28;20023;-76
2022/09/14 00:58:49;;;;;;;3.42;2.63;;;14.80;99.90;;;;;;5055444;28;20104;-76
2022/09/14 01:01:15;;;;;;;5.72;3.08;;;14.80;99.90;;;;;;5054064;28;20500;-76
2022/09/14 01:03:41;;;;;;;4.85;2.92;;;14.70;99.90;;;;;;5055049;28;20049;-76
2022/09/14 01:06:17;;;;;;;3.10;2.90;;;14.60;99.90;;;;;;5055266;28;20079;-76
2022/09/14 01:09:39;;;;;;;3.33;2.72;;;14.50;99.90;;;;;;5054244;28;20380;-76
2022/09/14 01:12:27;;;;;;;5.55;3.10;;;14.50;99.90;;;;;;5018005;28;20045;-76
2022/09/14 01:14:58;;;;;;;4.35;2.92;;;14.40;99.90;;;;;;5054097;28;20025;-76
2022/09/14 01:17:33;;;;;;;3.00;2.70;;;14.30;99.90;;;;;;5055455;28;20025;-76
2022/09/14 01:20:08;;;;;;;9.27;3.17;;;14.30;99.90;;;;;;5053670;28;20021;-76
2022/09/14 01:23:05;;;;;;;6.85;3.10;;;14.30;99.90;;;;;;5054470;28;20025;-76
2022/09/14 01:25:40;;;;;;;5.07;3.30;;;14.20;99.90;;;;;;5053715;28;20029;-76
2022/09/14 01:28:20;;;;;;;6.82;3.10;;;14.30;99.90;;;;;;5054637;28;20025;-76
2022/09/14 01:30:48;;;;;;;3.75;2.95;;;14.20;99.90;;;;;;5054707;28;20032;-76
2022/09/14 01:33:20;;;;;;;4.72;3.03;;;14.20;99.90;;;;;;5053547;28;20129;-76
2022/09/14 01:35:53;;;;;;;4.05;3.08;;;14.20;99.90;;;;;;5055082;28;20104;-76
2022/09/14 01:38:21;;;;;;;5.47;3.25;;;14.30;99.90;;;;;;5054819;28;20025;-76
2022/09/14 01:40:51;;;;;;;5.77;2.93;;;14.30;99.90;;;;;;5053283;28;20032;-76
2022/09/14 01:43:25;;;;;;;4.25;3.70;;;14.30;99.90;;;;;;5053488;28;20029;-76
2022/09/14 01:45:55;;;;;;;7.88;4.03;;;14.30;99.90;;;;;;5053291;28;20031;-76
2022/09/14 01:48:29;;;;;;;7.15;3.30;;;14.30;99.90;;;;;;5053890;28;20021;-76
2022/09/14 01:50:58;;;;;;;10.77;3.33;;;14.30;99.90;;;;;;5053430;28;20120;-76
2022/09/14 01:53:39;;;;;;;5.68;3.13;;;14.30;99.90;;;;;;5054210;28;20025;-76
2022/09/14 01:56:20;;;;;;;4.53;2.92;;;14.30;99.90;;;;;;5053112;28;20029;-76
2022/09/14 01:58:49;;;;;;;6.25;3.03;;;14.30;99.90;;;;;;5053752;28;20025;-76
2022/09/14 02:01:20;;;;;;;5.95;2.83;;;14.40;99.90;;;;;;5052885;28;20033;-77
2022/09/14 02:03:52;;;;;;;4.93;2.83;;;14.40;99.90;;;;;;5053009;28;20393;-76
2022/09/14 02:06:24;;;;;;;8.55;3.15;;;14.40;99.90;;;;;;5053096;28;20025;-76
2022/09/14 02:08:51;;;;;;;4.32;2.97;;;14.40;99.90;;;;;;5054497;28;20033;-76
2022/09/14 02:11:17;;;;;;;6.53;2.92;;;14.40;99.90;;;;;;5052815;28;20477;-76
2022/09/14 02:13:42;;;;;;;3.13;2.83;;;14.40;99.90;;;;;;5053653;28;20078;-76
2022/09/14 02:16:08;;;;;;;3.65;3.00;;;14.40;99.90;;;;;;5054123;28;20035;-76
2022/09/14 02:18:34;;;;;;;4.22;2.55;;;14.40;99.90;;;;;;5054069;28;20027;-76
2022/09/14 02:21:16;;;;;;;2.90;2.45;;;14.40;99.90;;;;;;5052759;28;20389;-76
2022/09/14 02:23:42;;;;;;;5.00;2.83;;;14.40;99.90;;;;;;5056838;28;20377;-76
2022/09/14 02:26:08;;;;;;;6.68;2.88;;;14.40;99.90;;;;;;5056555;28;20025;-76
2022/09/14 02:28:34;;;;;;;3.25;2.85;;;14.40;99.90;;;;;;5054403;28;20025;-76
2022/09/14 02:31:11;;;;;;;4.40;3.00;;;14.40;99.90;;;;;;5053886;28;20043;-76
2022/09/14 02:33:49;;;;;;;4.45;3.08;;;14.40;99.90;;;;;;5053627;28;20523;-76
2022/09/14 02:36:30;;;;;;;7.68;3.17;;;14.30;99.90;;;;;;5052745;28;20021;-76
2022/09/14 02:39:04;;;;;;;6.82;2.85;;;14.30;99.90;;;;;;5052631;28;20090;-76
2022/09/14 02:41:56;;;;;;;5.85;3.15;;;14.30;99.90;;;;;;5053492;28;20361;-76
2022/09/14 02:44:49;;;;;;;3.80;3.05;;;14.30;99.90;;;;;;5037591;28;20048;-76
2022/09/14 02:47:18;;;;;;;5.53;3.03;;;14.30;99.90;;;;;;5053649;28;20104;-76
2022/09/14 02:50:16;;;;;;;6.90;2.92;;;14.20;99.90;;;;;;5052347;28;20435;-76
2022/09/14 02:52:54;;;;;;;4.13;2.97;;;14.20;99.90;;;;;;5019318;28;20043;-76
2022/09/14 02:55:23;;;;;;;4.50;3.15;;;14.20;99.90;;;;;;5053663;28;20025;-76
2022/09/14 02:58:06;;;;;;;6.70;3.10;;;14.20;99.90;;;;;;5052768;28;20021;-76
2022/09/14 03:00:35;;;;;;;6.30;3.20;;;14.20;99.90;;;;;;5052599;28;20405;-76
2022/09/14 03:03:02;;;;;;;4.93;3.22;;;14.20;99.90;;;;;;5052905;28;20523;-76
2022/09/14 03:05:28;;;;;;;10.38;3.72;;;14.20;99.90;;;;;;5052372;28;20037;-76
2022/09/14 03:07:54;;;;;;;5.30;2.92;;;14.20;99.90;;;;;;5053459;28;20032;-77
2022/09/14 03:10:20;;;;;;;10.38;3.30;;;14.20;99.90;;;;;;5052518;28;20167;-76
2022/09/14 03:12:45;;;;;;;5.25;3.20;;;14.20;99.90;;;;;;5052250;28;20465;-76
2022/09/14 03:15:11;;;;;;;3.78;2.80;;;14.30;99.90;;;;;;5053364;28;20032;-76
2022/09/14 03:17:37;;;;;;;4.20;2.85;;;14.30;99.90;;;;;;5052121;28;20120;-76
2022/09/14 03:20:03;;;;;;;4.75;3.00;;;14.30;99.90;;;;;;5053245;28;20028;-76
2022/09/14 03:22:29;;;;;;;8.80;2.65;;;14.30;99.90;;;;;;5052593;28;20067;-76
2022/09/14 03:24:54;;;;;;;4.32;2.90;;;14.20;99.90;;;;;;5052013;28;20129;-76
2022/09/14 03:27:20;;;;;;;5.72;2.88;;;14.30;99.90;;;;;;5052724;28;20065;-76
2022/09/14 03:29:46;;;;;;;6.20;3.35;;;14.20;99.90;;;;;;5051958;28;20115;-76
2022/09/14 03:32:12;;;;;;;7.05;3.17;;;14.20;99.90;;;;;;5052024;28;20473;-76
2022/09/14 03:34:38;;;;;;;8.52;3.22;;;14.30;99.90;;;;;;5051905;28;20033;-76
2022/09/14 03:37:04;;;;;;;4.40;2.80;;;14.30;99.90;;;;;;5052896;28;20044;-76
2022/09/14 03:39:29;;;;;;;4.22;2.95;;;14.30;99.90;;;;;;5051904;28;20021;-76
2022/09/14 03:41:55;;;;;;;4.10;3.22;;;14.30;99.90;;;;;;5052324;28;20051;-76
2022/09/14 03:44:20;;;;;;;8.30;3.00;;;14.30;99.90;;;;;;5051896;28;20024;-76
2022/09/14 03:46:46;;;;;;;3.95;2.60;;;14.30;99.90;;;;;;5056165;28;20400;-76
2022/09/14 03:49:12;;;;;;;8.38;3.13;;;14.40;99.90;;;;;;5056872;28;20036;-76
2022/09/14 03:51:37;;;;;;;4.30;2.60;;;14.40;99.90;;;;;;5055408;28;20082;-76
2022/09/14 03:54:03;;;;;;;6.25;3.10;;;14.40;99.90;;;;;;5055268;28;20074;-76
2022/09/14 03:56:29;;;;;;;3.90;2.72;;;14.40;99.90;;;;;;5056865;28;20052;-76
2022/09/14 03:58:55;;;;;;;6.38;2.75;;;14.40;99.90;;;;;;5056505;28;20178;-76
2022/09/14 04:01:22;;;;;;;7.32;2.65;;;14.40;99.90;;;;;;5055116;28;20036;-76
2022/09/14 04:03:48;;;;;;;3.00;2.75;;;14.50;99.90;;;;;;5054943;28;20420;-77
2022/09/14 04:06:14;;;;;;;4.82;3.03;;;14.50;99.90;;;;;;5055419;28;20025;-76
2022/09/14 04:08:41;;;;;;;4.25;3.20;;;14.50;99.90;;;;;;5054990;28;20021;-76
2022/09/14 04:11:09;;;;;;;5.30;3.05;;;14.60;99.90;;;;;;5055239;28;20033;-77
2022/09/14 04:13:36;;;;;;;7.07;2.83;;;14.60;99.90;;;;;;5056225;28;20100;-78
2022/09/14 04:16:01;;;;;;;4.78;2.60;;;14.70;99.90;;;;;;5056195;28;20021;-77
2022/09/14 04:18:27;;;;;;;4.78;2.67;;;14.70;99.90;;;;;;5056123;28;20487;-76
2022/09/14 04:21:02;;;;;;;3.83;2.70;;;14.70;99.90;;;;;;5056291;28;20029;-77
2022/09/14 04:23:28;;;;;;;7.18;3.50;;;14.80;99.90;;;;;;5054920;28;20120;-77
2022/09/14 04:25:54;;;;;;;4.18;2.72;;;14.80;99.90;;;;;;5055733;28;20021;-76
2022/09/14 04:28:21;;;;;;;3.45;2.78;;;14.80;99.90;;;;;;5055906;28;20025;-73
2022/09/14 04:31:00;;;;;;;7.18;3.03;;;14.90;99.90;;;;;;5054247;28;20037;-58
2022/09/14 04:33:29;;;;;;;4.43;2.90;;;14.90;99.90;;;;;;5055721;28;20031;-59
2022/09/14 04:36:03;;;;;;;3.13;2.92;;;14.90;99.90;;;;;;5055721;28;20025;-59
2022/09/14 04:38:30;;;;;;;6.13;2.97;;;15.00;99.90;;;;;;5056037;28;20366;-58
2022/09/14 04:40:56;;;;;;;4.45;2.72;;;14.90;99.90;;;;;;5055514;28;20032;-58
2022/09/14 04:43:23;;;;;;;10.80;3.20;;;15.00;99.90;;;;;;5055542;28;20120;-58
2022/09/14 04:45:49;;;;;;;6.32;3.17;;;15.00;99.90;;;;;;5055565;28;20025;-58
2022/09/14 04:48:15;;;;;;;5.57;2.97;;;15.00;99.90;;;;;;5055473;28;20151;-58
2022/09/14 04:50:41;;;;;;;6.15;3.03;;;15.00;99.90;;;;;;5055411;28;20025;-74
2022/09/14 04:53:06;;;;;;;9.13;2.58;;;14.90;99.90;;;;;;5055465;28;20025;-74
2022/09/14 04:55:32;;;;;;;5.60;3.03;;;14.90;99.90;;;;;;5055342;28;20025;-73
2022/09/14 04:57:58;;;;;;;4.97;2.75;;;15.00;99.90;;;;;;5053239;28;20029;-73
2022/09/14 05:00:23;;;;;;;5.53;2.70;;;14.90;99.90;;;;;;5055537;28;20369;-73
2022/09/14 05:02:49;;;;;;;7.35;3.55;;;15.00;99.90;;;;;;5053606;28;20025;-75
2022/09/14 05:05:33;;;;;;;3.38;2.97;;;15.00;99.90;;;;;;5055753;28;20071;-74
2022/09/14 05:07:59;;;;;;;3.13;2.83;;;15.00;99.90;;;;;;5054034;28;20124;-74
2022/09/14 05:10:24;;;;;;;5.13;2.70;;;15.00;99.90;;;;;;5053902;28;20056;-74
2022/09/14 05:12:50;;;;;;;5.88;3.00;;;15.00;99.90;;;;;;5053838;28;20124;-74
2022/09/14 05:15:15;;;;;;;4.00;3.17;;;15.00;99.90;;;;;;5053681;28;20453;-74
2022/09/14 05:17:41;;;;;;;5.68;3.30;;;15.00;99.90;;;;;;5055208;28;20032;-74
2022/09/14 05:20:07;;;;;;;3.15;2.88;;;15.00;99.90;;;;;;5053635;28;20326;-74
2022/09/14 05:22:33;;;;;;;7.57;2.75;;;15.00;99.90;;;;;;5053479;28;20503;-74
2022/09/14 05:24:58;;;;;;;6.15;3.03;;;15.10;99.90;;;;;;5053585;28;20025;-74
2022/09/14 05:27:24;;;;;;;3.80;2.47;;;15.20;99.90;;;;;;5053488;28;20025;-74
2022/09/14 05:29:50;;;;;;;8.77;3.30;;;15.20;99.90;;;;;;5054798;28;20021;-74
2022/09/14 05:32:15;;;;;;;6.95;3.35;;;15.20;99.90;;;;;;5054370;28;20505;-74
2022/09/14 05:34:41;;;;;;;6.80;3.38;;;15.30;99.90;;;;;;5054599;28;20026;-73
2022/09/14 05:37:07;;;;;;;9.80;3.55;;;15.30;99.90;;;;;;5054815;28;20159;-74
2022/09/14 05:39:32;;;;;;;7.80;3.53;;;15.40;99.90;;;;;;5054237;28;20028;-74
2022/09/14 05:41:58;;;;;;;6.03;3.42;;;15.40;99.90;;;;;;5053247;28;20032;-74
2022/09/14 05:44:23;;;;;;;8.25;3.13;;;15.50;99.90;;;;;;5053620;28;20416;-74
2022/09/14 05:46:49;;;;;;;5.75;3.35;;;15.40;99.90;;;;;;5054322;28;20032;-74
2022/09/14 05:49:15;;;;;;;7.35;3.40;;;15.50;99.90;;;;;;5054392;28;20378;-74
2022/09/14 05:51:40;;;;;;;6.60;3.92;;;15.50;99.90;;;;;;5053058;28;20037;-74
2022/09/14 05:54:10;;;;;;;6.25;3.42;;;15.50;99.90;;;;;;5054846;28;20033;-74
2022/09/14 05:56:36;;;;;;;8.13;4.63;;;15.50;99.90;;;;;;5053504;28;20042;-74
2022/09/14 05:59:02;;;;;;;10.90;3.95;;;15.60;99.90;;;;;;5053388;28;20428;-74
2022/09/14 06:01:31;;;;;;;5.72;3.67;;;15.60;99.90;;;;;;5054001;28;20025;-74
2022/09/14 06:04:01;;;;;;;8.00;3.60;;;15.70;99.90;;;;;;5054168;28;20432;-74
2022/09/14 06:06:28;;;;;;;10.73;3.55;;;15.70;99.90;;;;;;5054169;28;20037;-74
2022/09/14 06:08:55;;;;;;;5.65;2.97;;;15.80;99.90;;;;;;5054039;28;20025;-74
2022/09/14 06:11:27;;;;;;;8.02;3.35;;;15.80;99.90;;;;;;5054170;28;20029;-74
2022/09/14 06:13:54;;;;;;;6.35;3.08;;;15.90;99.90;;;;;;5052798;28;20469;-74
2022/09/14 06:16:21;;;;;;;7.72;3.85;;;15.90;99.90;;;;;;5052939;28;20058;-74
2022/09/14 06:18:48;;;;;;;9.57;3.42;;;15.90;99.90;;;;;;5054102;28;20056;-74
2022/09/14 06:21:16;;;;;;;6.75;3.15;;;16.00;99.90;;;;;;5053822;28;20423;-74
2022/09/14 06:23:42;;;;;;;5.10;3.03;;;16.00;99.90;;;;;;5052933;28;20384;-74
2022/09/14 06:26:09;;;;;;;4.15;2.97;;;16.00;99.90;;;;;;5055035;28;20111;-74
2022/09/14 06:28:35;;;;;;;12.85;3.70;;;16.00;99.90;;;;;;5055594;28;20056;-74
2022/09/14 06:31:06;;;;;;;4.90;2.95;;;16.00;99.90;;;;;;5057121;28;20028;-74
2022/09/14 06:33:33;;;;;;;4.30;3.40;;;16.00;99.90;;;;;;5054871;28;20060;-74
2022/09/14 06:36:03;;;;;;;6.60;2.75;;;16.10;99.90;;;;;;5053981;28;20059;-74
2022/09/14 06:38:29;;;;;;;6.50;3.40;;;16.10;99.90;;;;;;5054230;28;20032;-74
2022/09/14 06:41:01;;;;;;;4.20;2.90;;;16.20;99.90;;;;;;5052451;28;20041;-75
2022/09/14 06:43:34;;;;;;;6.65;2.63;;;16.20;99.90;;;;;;5052989;28;20083;-74
2022/09/14 06:46:05;;;;;;;7.85;3.20;;;16.30;99.90;;;;;;5053334;28;20048;-74
2022/09/14 06:48:35;;;;;;;7.72;3.33;;;16.30;99.90;;;;;;5053672;28;20021;-74
2022/09/14 06:51:20;;;;;;;7.00;2.92;;;16.30;99.90;;;;;;5052198;28;20385;-74
2022/09/14 06:53:47;;;;;;;6.03;2.80;;;16.40;99.90;;;;;;5052412;28;20500;-74
2022/09/14 06:56:13;;;;;;;4.72;2.88;;;16.40;99.90;;;;;;5053740;28;20025;-74
2022/09/14 06:58:40;;;;;;;7.70;3.55;;;16.50;99.90;;;;;;5053891;28;20119;-75
2022/09/14 07:01:09;;;;;;;6.68;3.53;;;16.50;99.90;;;;;;5053211;28;20033;-75
2022/09/14 07:03:36;;;;;;;5.28;3.45;;;16.60;99.90;;;;;;5057069;28;20045;-74
2022/09/14 07:06:05;;;;;;;4.43;3.30;;;16.60;99.90;;;;;;5054550;28;20028;-75
2022/09/14 07:08:32;;;;;;;3.60;3.20;;;16.60;99.90;;;;;;5054778;28;20021;-75
2022/09/14 07:10:59;;;;;;;5.38;3.85;;;16.60;99.90;;;;;;5055117;28;20044;-75
2022/09/14 07:13:27;;;;;;;7.63;2.95;;;16.60;99.90;;;;;;5051927;28;20052;-74
2022/09/14 07:15:53;;;;;;;6.35;3.42;;;16.70;99.90;;;;;;5053248;28;20108;-74
2022/09/14 07:18:18;;;;;;;5.88;3.33;;;16.70;99.90;;;;;;5053566;28;20116;-74
2022/09/14 07:20:44;;;;;;;4.07;3.03;;;16.80;99.90;;;;;;5053512;28;20029;-74
2022/09/14 07:23:12;;;;;;;10.88;4.50;;;16.90;99.90;;;;;;5057128;28;20033;-74
2022/09/14 07:25:38;;;;;;;7.57;2.95;;;17.10;99.90;;;;;;5055934;28;20078;-74
2022/09/14 07:28:03;;;;;;;4.63;3.00;;;17.30;99.90;;;;;;5055906;28;20029;-73
2022/09/14 07:30:29;;;;;;;7.28;3.30;;;17.50;99.90;;;;;;5057121;28;20064;-74
2022/09/14 07:32:55;;;;;;;3.10;2.80;;;17.70;99.90;;;;;;5056792;28;20501;-74
2022/09/14 07:35:20;;;;;;;8.80;2.28;;;18.00;99.90;;;;;;5055823;28;20453;-74
2022/09/14 07:37:46;;;;;;;3.25;2.30;;;18.20;99.90;;;;;;5055734;28;20165;-74
2022/09/14 07:40:12;;;;;;;3.50;2.47;;;18.40;99.90;;;;;;5056940;28;20373;-74
2022/09/14 07:42:37;;;;;;;2.58;1.98;;;18.60;99.90;;;;;;5056791;28;20090;-73
2022/09/14 07:45:04;;;;;;;4.28;2.40;;;18.70;99.90;;;;;;5056903;28;20021;-74
2022/09/14 07:47:31;;;;;;;5.63;2.28;;;18.90;99.90;;;;;;5056733;28;20029;-74
2022/09/14 07:49:56;;;;;;;3.03;1.92;;;18.90;99.90;;;;;;5055765;28;20064;-74
2022/09/14 07:52:22;;;;;;;5.03;1.98;;;18.90;99.90;;;;;;5055463;28;20071;-75
2022/09/14 07:54:48;;;;;;;4.05;1.98;;;19.00;99.90;;;;;;5056352;28;20027;-74
2022/09/14 07:57:14;;;;;;;3.00;1.67;;;19.20;99.90;;;;;;5055380;28;20377;-74
2022/09/14 07:59:40;;;;;;;1.92;1.83;;;19.50;99.90;;;;;;5056608;28;20101;-74
2022/09/14 08:02:07;;;;;;;2.45;1.45;;;20.00;99.90;;;;;;5056766;28;20453;-74
2022/09/14 08:04:39;;;;;;;3.05;1.70;;;20.40;99.90;;;;;;5055215;28;20049;-74
2022/09/14 08:07:05;;;;;;;4.20;1.60;;;20.70;99.90;;;;;;5056358;28;20028;-74
2022/09/14 08:09:31;;;;;;;6.53;2.03;;;20.80;99.90;;;;;;5056432;28;20029;-74
2022/09/14 08:11:57;;;;;;;5.70;1.70;;;20.90;99.90;;;;;;5055042;28;20457;-74
2022/09/14 08:14:22;;;;;;;3.22;1.85;;;21.00;99.90;;;;;;5056564;28;20465;-74
2022/09/14 08:16:48;;;;;;;1.48;1.38;;;21.20;99.90;;;;;;5055973;28;20031;-74
2022/09/14 08:19:18;;;;;;;2.97;1.70;;;21.20;99.90;;;;;;5054876;28;20456;-74
2022/09/14 08:21:44;;;;;;;2.70;1.30;;;21.20;99.90;;;;;;5054800;28;20064;-74
2022/09/14 08:24:17;;;;;;;3.25;1.67;;;21.30;99.90;;;;;;5056271;28;20029;-74
2022/09/14 08:26:43;;;;;;;11.13;2.90;;;21.40;99.90;;;;;;5055779;28;20492;-74
2022/09/14 08:29:11;;;;;;;5.43;1.40;;;21.50;99.90;;;;;;5055718;28;20029;-74
2022/09/14 08:31:38;;;;;;;1.50;1.40;;;21.50;99.90;;;;;;5054647;28;20033;-74
2022/09/14 08:34:05;;;;;;;3.55;1.70;;;21.60;99.90;;;;;;5056099;28;20017;-74
2022/09/14 08:36:33;;;;;;;4.40;1.38;;;21.60;99.90;;;;;;5055963;28;20056;-74
2022/09/14 08:38:59;;;;;;;1.35;1.17;;;21.60;99.90;;;;;;5054663;28;20457;-74
2022/09/14 08:41:33;;;;;;;2.85;2.17;;;21.70;99.90;;;;;;5055713;28;20037;-74
2022/09/14 08:44:14;;;;;;;2.20;1.30;;;21.80;99.90;;;;;;5055723;28;20029;-74
2022/09/14 08:47:23;;;;;;;4.38;1.92;;;21.80;99.90;;;;;;5055540;28;20381;-74
2022/09/14 08:50:13;;;;;;;4.95;2.15;;;21.70;99.90;;;;;;5040392;28;20132;-74
2022/09/14 08:52:47;;;;;;;2.13;1.60;;;21.70;99.90;;;;;;5055531;28;20024;-74
2022/09/14 08:55:19;;;;;;;3.55;1.40;;;21.70;99.90;;;;;;5054546;28;20029;-74
2022/09/14 08:57:53;;;;;;;4.50;1.77;;;21.90;99.90;;;;;;5055395;28;20029;-74
2022/09/14 09:00:23;;;;;;;2.88;1.75;;;22.10;99.90;;;;;;5055703;28;20025;-74
2022/09/14 09:03:16;;;;;;;4.43;1.52;;;22.20;99.90;;;;;;5053931;28;20036;-74
2022/09/14 09:05:45;;;;;;;5.40;2.15;;;22.10;99.90;;;;;;5054084;28;20033;-74
2022/09/14 09:08:25;;;;;;;3.97;2.17;;;22.10;99.90;;;;;;5054085;28;20018;-74
2022/09/14 09:10:53;;;;;;;4.43;2.50;;;22.10;99.90;;;;;;5055260;28;20032;-74
2022/09/14 09:13:24;;;;;;;9.55;2.90;;;22.10;99.90;;;;;;5053978;28;20120;-74
2022/09/14 09:15:53;;;;;;;4.72;2.53;;;22.30;99.90;;;;;;5054011;28;20029;-74
2022/09/14 09:18:31;;;;;;;;;;;22.20;99.90;;;;;;5055774;28;20422;-74
2022/09/14 09:21:03;;;;;;;7.93;2.65;;;22.20;99.90;;;;;;5053776;28;19920;-74
2022/09/14 09:23:32;;;;;;;5.25;2.58;;;22.10;99.90;;;;;;5053818;28;20033;-74
2022/09/14 09:26:21;;;;;;;3.60;2.30;;;22.00;99.90;;;;;;5053679;28;20060;-75
2022/09/14 09:28:50;;;;;;;5.28;2.45;;;22.20;99.90;;;;;;5055224;28;20461;-74
2022/09/14 09:31:28;;;;;;;4.20;2.70;;;22.20;99.90;;;;;;5055205;28;20029;-74
2022/09/14 09:33:54;;;;;;;8.27;3.83;;;22.40;99.90;;;;;;5054597;28;20029;-74
2022/09/14 09:36:20;;;;;;;6.70;2.85;;;22.60;99.90;;;;;;5053394;28;20354;-74
2022/09/14 09:38:45;;;;;;;3.88;3.17;;;22.50;99.90;;;;;;5053472;28;20025;-74
2022/09/14 09:41:25;;;;;;;4.82;2.65;;;22.40;99.90;;;;;;5053511;28;20073;-74
2022/09/14 09:44:08;;;;;;;4.93;3.17;;;22.40;99.90;;;;;;5053317;28;20031;-74
2022/09/14 09:46:55;;;;;;;14.57;3.45;;;22.50;99.90;;;;;;5054514;28;20059;-74
2022/09/14 09:49:35;;;;;;;5.78;3.35;;;22.50;99.90;;;;;;5052122;28;20060;-74
2022/09/14 09:52:12;;;;;;;7.80;4.05;;;22.60;99.90;;;;;;5053258;28;20025;-75
2022/09/14 09:54:49;;;;;;;9.48;4.03;;;22.70;99.90;;;;;;5054170;28;20021;-74
2022/09/14 09:57:35;;;;;;;7.50;3.63;;;22.80;99.90;;;;;;5053129;28;20044;-74
2022/09/14 10:00:28;;;;;;;11.82;3.80;;;22.90;99.90;;;;;;5054753;28;20381;-74
2022/09/14 10:02:55;;;;;;;7.28;3.33;;;23.10;99.90;;;;;;5052771;28;20388;-74
2022/09/14 10:05:27;;;;;;;6.28;3.05;;;23.20;99.90;;;;;;5054186;28;20032;-73
2022/09/14 10:08:13;;;;;;;9.73;4.13;;;23.30;99.90;;;;;;5053738;28;20029;-74
2022/09/14 10:10:41;;;;;;;9.18;3.53;;;23.20;99.90;;;;;;5054717;28;20039;-74
2022/09/14 10:13:36;;;;;;;4.03;2.88;;;23.00;99.90;;;;;;5054129;28;20029;-74
2022/09/14 10:16:12;;;;;;;8.48;2.58;;;22.70;99.90;;;;;;5050813;28;20035;-75
2022/09/14 10:18:43;;;;;;;6.68;3.00;;;22.50;99.90;;;;;;5052909;28;20036;-75
2022/09/14 10:21:08;;;;;;;3.75;2.83;;;22.30;99.90;;;;;;5052925;28;20025;-74
2022/09/14 10:23:38;;;;;;;3.03;2.15;;;22.00;99.90;;;;;;5053940;28;20051;-74
2022/09/14 10:26:13;;;;;;;3.60;2.88;;;21.90;99.90;;;;;;5053906;28;20056;-74
2022/09/14 10:28:45;;;;;;;8.10;3.60;;;21.60;99.90;;;;;;5053865;28;20025;-75
2022/09/14 10:31:13;;;;;;;6.28;3.50;;;21.40;99.90;;;;;;5052949;28;20033;-75
2022/09/14 10:33:39;;;;;;;5.95;2.90;;;21.20;99.90;;;;;;5053616;28;20107;-74
2022/09/14 10:36:08;;;;;;;6.32;2.60;;;21.20;99.90;;;;;;5053583;28;20053;-74
2022/09/14 10:38:51;;;;;;;4.93;2.65;;;21.20;99.90;;;;;;5053982;28;20021;-74
2022/09/14 10:41:39;;;;;;;7.35;3.03;;;21.10;99.90;;;;;;5052428;28;20040;-74
2022/09/14 10:44:36;;;;;;;7.13;3.05;;;21.00;99.90;;;;;;5054697;28;20028;-74
2022/09/14 10:47:11;;;;;;;5.78;2.88;;;20.90;99.90;;;;;;5052163;28;20074;-75
2022/09/14 10:49:59;;;;;;;5.03;3.33;;;20.80;99.90;;;;;;5053820;28;20032;-74
2022/09/14 10:52:43;;;;;;;8.73;3.60;;;20.70;99.90;;;;;;5052899;28;20091;-74
2022/09/14 10:55:24;;;;;;;5.82;3.38;;;20.80;99.90;;;;;;5054321;28;20021;-74
2022/09/14 10:58:05;;;;;;;3.55;2.97;;;20.80;99.90;;;;;;5056513;28;20021;-74
2022/09/14 11:00:41;;;;;;;8.00;3.60;;;20.90;99.90;;;;;;5057406;28;20029;-74
2022/09/14 11:03:12;;;;;;;8.30;3.83;;;20.90;99.90;;;;;;5056597;28;20049;-73
2022/09/14 11:05:40;;;;;;;8.00;3.40;;;21.00;99.90;;;;;;5057661;28;20021;-74
2022/09/14 11:08:12;;;;;;;5.60;3.30;;;21.00;99.90;;;;;;5057900;28;20025;-74
2022/09/14 11:10:52;;;;;;;7.13;3.38;;;21.00;99.90;;;;;;5057581;28;20055;-74
2022/09/14 11:13:41;;;;;;;7.55;3.50;;;21.10;99.90;;;;;;5056936;28;20476;-74
2022/09/14 11:16:16;;;;;;;;;;;21.20;99.90;;;;;;5059740;28;20372;-74
2022/09/14 11:19:11;;;;;;;7.57;3.55;;;21.20;99.90;;;;;;5058617;28;19951;-74
2022/09/14 11:21:45;;;;;;;6.90;3.85;;;21.30;99.90;;;;;;5057895;28;20051;-75
2022/09/14 11:24:28;;;;;;;8.18;3.95;;;21.40;99.90;;;;;;5058669;28;20072;-74
2022/09/14 11:27:17;;;;;;;4.20;3.60;;;21.50;99.90;;;;;;5057475;28;20031;-74
2022/09/14 11:29:46;;;;;;;;;;;21.60;99.90;;;;;;5056181;28;20083;-74
2022/09/14 11:32:32;;;;;;;5.85;3.35;;;21.80;99.90;;;;;;5057151;28;19947;-74
2022/09/14 11:35:16;;;;;;;10.02;4.80;;;21.90;99.90;;;;;;5057269;28;20139;-74
2022/09/14 11:38:01;;;;;;;9.05;3.63;;;22.00;99.90;;;;;;5056982;28;20083;-74
2022/09/14 11:40:42;;;;;;;9.57;3.53;;;22.30;99.90;;;;;;5056871;28;20036;-74
2022/09/14 11:43:14;;;;;;;7.63;3.95;;;22.50;99.90;;;;;;5055632;28;20052;-74
2022/09/14 11:46:08;;;;;;;8.63;4.38;;;22.60;99.90;;;;;;5055946;28;20036;-74
2022/09/14 11:48:41;;;;;;;6.53;3.70;;;22.40;99.90;;;;;;5056190;28;20041;-74
2022/09/14 11:51:35;;;;;;;7.00;4.18;;;22.50;99.90;;;;;;5055507;28;20393;-74
2022/09/14 11:54:00;;;;;;;4.70;4.00;;;22.70;99.90;;;;;;5049144;28;20577;-75
2022/09/14 11:56:31;;;;;;;8.00;3.65;;;22.80;99.90;;;;;;5055407;28;20111;-74
2022/09/14 11:59:00;;;;;;;8.38;3.90;;;23.00;99.90;;;;;;5057011;28;20109;-74
2022/09/14 12:01:25;;;;;;;7.47;4.00;;;23.20;99.90;;;;;;5055195;28;20184;-74
2022/09/14 12:04:00;;;;;;;5.22;3.50;;;23.20;99.90;;;;;;5056321;28;20146;-74
2022/09/14 12:06:29;;;;;;;4.35;3.20;;;23.30;99.90;;;;;;5054958;28;20021;-74
2022/09/14 12:09:19;;;;;;;6.15;2.83;;;23.60;99.90;;;;;;5056361;28;20032;-73
2022/09/14 12:11:57;;;;;;;5.97;3.13;;;24.10;99.90;;;;;;5054882;28;20120;-72
2022/09/14 12:14:22;;;;;;;3.22;2.80;;;24.60;99.90;;;;;;5056296;28;20032;-73
2022/09/14 12:17:23;;;;;;;4.65;3.22;;;24.50;99.90;;;;;;5056244;28;20029;-72
2022/09/14 12:19:54;;;;;;;4.78;3.30;;;24.50;99.90;;;;;;5056293;28;20025;-74
2022/09/14 12:22:32;;;;;;;6.65;4.45;;;24.30;99.90;;;;;;5055070;28;20060;-72
2022/09/14 12:25:04;;;;;;;3.58;2.90;;;24.50;99.90;;;;;;5054946;28;20025;-75
2022/09/14 12:27:33;;;;;;;9.45;3.60;;;24.80;99.90;;;;;;5054829;28;20036;-75
2022/09/14 12:29:59;;;;;;;5.53;3.03;;;25.60;99.90;;;;;;5056168;28;20028;-75
2022/09/14 12:32:45;;;;;;;5.05;2.70;;;26.70;98.30;;;;;;5054741;28;20028;-75
2022/09/14 12:35:44;;;;;;;6.80;2.92;;;27.30;96.10;;;;;;5054534;28;20041;-75
2022/09/14 12:38:28;;;;;;;6.82;3.47;;;26.60;95.20;;;;;;5034075;28;20033;-75
2022/09/14 12:41:07;;;;;;;5.80;3.15;;;26.70;95.60;;;;;;5055549;28;20033;-76
2022/09/14 12:43:35;;;;;;;6.32;2.78;;;26.90;94.50;;;;;;5054653;28;20111;-76
2022/09/14 12:46:21;;;;;;;7.55;3.03;;;26.90;94.20;;;;;;5055844;28;20025;-76
2022/09/14 12:48:51;;;;;;;4.65;2.65;;;27.10;93.90;;;;;;5054476;28;20033;-76
2022/09/14 12:51:26;;;;;;;3.65;2.90;;;27.00;93.40;;;;;;5054337;28;20033;-76
2022/09/14 12:54:28;;;;;;;6.55;2.90;;;27.00;93.70;;;;;;5055910;28;20028;-76
2022/09/14 12:57:01;;;;;;;4.90;3.17;;;27.00;93.10;;;;;;5039429;28;20047;-76
2022/09/14 12:59:45;;;;;;;8.40;2.72;;;27.20;92.80;;;;;;5054302;28;20025;-60
2022/09/14 13:02:38;;;;;;;3.20;2.63;;;27.30;92.30;;;;;;5055425;28;20044;-60
2022/09/14 13:05:06;;;;;;;5.72;2.92;;;27.40;92.20;;;;;;5055447;28;20465;-60
2022/09/14 13:07:37;;;;;;;5.43;2.85;;;27.70;91.70;;;;;;5055408;28;20088;-60
2022/09/14 13:10:05;;;;;;;4.43;2.30;;;27.60;90.90;;;;;;5055500;28;20044;-60
2022/09/14 13:12:40;;;;;;;6.90;2.30;;;27.40;90.90;;;;;;5055257;28;20465;-60